Slavkov u Brna, Czech Republic
Current Conditions -  °F | °C
As of 6:30 PM on Friday 24 Oct 2014 (Local Time) from LKTB Reporting Station
Broken Clouds Broken Clouds  
Wind Chill: 37°   Ceiling: 2000
Heat Index: 45°   Visibility: 6mi
Dew Point: 36°   Wind: 17mph
Humidity: 71%   Direction: 40°NE
Pressure: 30.15"   Gusts: NA
Location:  49.15°N, 16.86°E
Report Text: LKTB 241630Z 04015KT 9999 BKN020 07/02 Q1021 NOSIG
Loading
Personal Weather Stations






























Interactive Weather Map
Tropical Storm Tracking
New forecast layout! Learn more

10-Day Weather Forecast

Advertisements
Track Severe Weather on mobile